Time;durP1;ratioP1;P1;durP2;ratioP2;P2;SDS_P1;SDS_P2;PMS_P1;PMS_P2;Temp;Humidity;BMP_temperature;BMP_pressure;BME280_temperature;BME280_humidity;BME280_pressure;Samples;Min_cycle;Max_cycle;Signal;HPM_P1;HPM_P2
2022/09/02 00:01:32;;;;;;;10.93;4.80;;;;;;;18.94;93.75;98938.30;1650599;86;21097;-79
2022/09/02 00:04:05;;;;;;;7.90;4.30;;;;;;;18.91;93.97;98943.30;1650754;86;21081;-78
2022/09/02 00:06:33;;;;;;;7.37;4.15;;;;;;;18.91;94.73;98935.40;1649305;86;21105;-78
2022/09/02 00:09:02;;;;;;;12.40;4.78;;;;;;;18.88;94.65;98927.22;1651173;86;21061;-78
2022/09/02 00:11:32;;;;;;;9.88;4.37;;;;;;;18.86;94.70;98931.74;1655197;85;21061;-78
2022/09/02 00:14:03;;;;;;;7.10;4.45;;;;;;;18.85;94.58;98926.08;1650402;85;21038;-81
2022/09/02 00:16:32;;;;;;;7.22;4.10;;;;;;;18.85;94.68;98926.56;1650658;85;21053;-78
2022/09/02 00:19:02;;;;;;;9.55;4.40;;;;;;;18.85;93.92;98922.12;1649925;87;21498;-77
2022/09/02 00:21:33;;;;;;;5.90;3.80;;;;;;;18.85;94.95;98924.77;1649890;87;21088;-77
2022/09/02 00:24:04;;;;;;;6.42;3.70;;;;;;;18.84;94.23;98923.09;1650566;85;21549;-77
2022/09/02 00:26:31;;;;;;;8.08;3.62;;;;;;;18.83;93.95;98924.49;1650391;87;21541;-79
2022/09/02 00:28:58;;;;;;;5.28;3.55;;;;;;;18.82;93.94;98929.38;1651060;85;21085;-79
2022/09/02 00:31:26;;;;;;;7.28;3.42;;;;;;;18.82;93.53;98927.61;1650616;87;21041;-78
2022/09/02 00:33:53;;;;;;;5.78;3.20;;;;;;;18.77;93.91;98918.27;1650962;86;21580;-78
2022/09/02 00:36:20;;;;;;;7.08;3.70;;;;;;;18.76;93.85;98920.50;1650644;85;21041;-78
2022/09/02 00:38:47;;;;;;;6.03;2.95;;;;;;;18.74;93.88;98917.98;1650579;85;21042;-78
2022/09/02 00:41:14;;;;;;;5.97;3.10;;;;;;;18.70;94.18;98916.45;1650515;85;21041;-78
2022/09/02 00:43:52;;;;;;;5.47;3.00;;;;;;;18.70;95.10;98923.03;1650530;85;21092;-78
2022/09/02 00:46:23;;;;;;;5.75;3.37;;;;;;;18.69;94.51;98922.20;1650595;85;21061;-78
2022/09/02 00:49:15;;;;;;;5.75;3.25;;;;;;;18.67;93.99;98920.61;1650532;85;21159;-78
2022/09/02 00:51:47;;;;;;;6.87;3.15;;;;;;;18.65;94.66;98929.07;1636338;87;21017;-79
2022/09/02 00:54:16;;;;;;;6.15;3.67;;;;;;;18.64;94.05;98920.78;1678898;84;21616;-78
2022/09/02 00:56:45;;;;;;;6.33;3.30;;;;;;;18.64;94.19;98919.02;1651732;85;21010;-79
2022/09/02 00:59:23;;;;;;;7.37;3.33;;;;;;;18.62;94.67;98923.98;1638255;85;21049;-81
2022/09/02 01:01:50;;;;;;;5.12;2.92;;;;;;;18.61;94.60;98919.19;1650091;87;22193;-78
2022/09/02 01:04:16;;;;;;;5.58;2.83;;;;;;;18.60;94.93;98922.78;1650172;85;21057;-78
2022/09/02 01:06:43;;;;;;;7.95;3.33;;;;;;;18.58;95.11;98915.89;1650230;87;21002;-78
2022/09/02 01:09:14;;;;;;;6.03;2.77;;;;;;;18.58;94.32;98918.52;1649416;86;21064;-80
2022/09/02 01:11:46;;;;;;;4.12;2.80;;;;;;;18.59;93.89;98929.45;1667941;86;21007;-78
2022/09/02 01:14:15;;;;;;;8.45;3.30;;;;;;;18.55;94.41;98920.88;1655948;87;21047;-78
2022/09/02 01:16:47;;;;;;;5.60;3.37;;;;;;;18.55;94.41;98917.41;1655808;87;21035;-78
2022/09/02 01:19:19;;;;;;;6.10;2.70;;;;;;;18.54;94.55;98917.02;1655425;87;21519;-78
2022/09/02 01:21:50;;;;;;;5.92;3.20;;;;;;;18.52;94.39;98917.58;1650408;87;20996;-77
2022/09/02 01:24:19;;;;;;;11.20;3.12;;;;;;;18.54;94.18;98920.48;1656249;87;21015;-78
2022/09/02 01:26:46;;;;;;;9.03;3.20;;;;;;;18.53;93.50;98917.97;1655084;87;21100;-80
2022/09/02 01:29:15;;;;;;;5.58;3.02;;;;;;;18.43;94.29;98918.52;1637710;87;20956;-78
2022/09/02 01:31:42;;;;;;;5.60;3.55;;;;;;;18.44;94.86;98914.96;1656258;85;21011;-78
2022/09/02 01:34:10;;;;;;;4.80;2.95;;;;;;;18.46;94.43;98920.11;1656149;87;21046;-78
2022/09/02 01:36:39;;;;;;;4.62;2.90;;;;;;;18.46;94.31;98918.80;1656221;85;21019;-78
2022/09/02 01:39:10;;;;;;;5.92;3.08;;;;;;;18.47;94.23;98915.23;1655122;87;20999;-78
2022/09/02 01:41:37;;;;;;;4.53;2.80;;;;;;;18.42;94.97;98915.97;1656168;87;21516;-77
2022/09/02 01:44:06;;;;;;;6.30;3.15;;;;;;;18.43;95.21;98925.09;1656122;87;20975;-78
2022/09/02 01:46:34;;;;;;;5.12;3.27;;;;;;;18.46;94.93;98922.74;1656233;87;21027;-78
2022/09/02 01:49:00;;;;;;;5.40;3.35;;;;;;;18.46;94.69;98919.66;1656110;87;21141;-77
2022/09/02 01:51:28;;;;;;;4.47;3.05;;;;;;;18.48;94.83;98921.73;1655490;87;21023;-78
2022/09/02 01:53:55;;;;;;;6.47;3.22;;;;;;;18.53;94.93;98924.55;1655651;87;21059;-77
2022/09/02 01:56:21;;;;;;;5.55;2.90;;;;;;;18.57;94.50;98915.05;1656145;85;20991;-78
2022/09/02 01:58:50;;;;;;;4.22;2.83;;;;;;;18.55;94.69;98916.09;1656243;87;21043;-78
2022/09/02 02:01:17;;;;;;;4.87;3.08;;;;;;;18.57;94.74;98912.90;1656269;87;21052;-77
2022/09/02 02:03:44;;;;;;;6.10;3.00;;;;;;;18.61;94.81;98917.03;1655368;87;20964;-81
2022/09/02 02:06:15;;;;;;;7.97;2.92;;;;;;;18.60;94.39;98917.95;1655219;87;21015;-81
2022/09/02 02:08:44;;;;;;;5.22;2.80;;;;;;;18.58;94.70;98925.98;1656197;85;21031;-77
2022/09/02 02:11:21;;;;;;;5.00;3.15;;;;;;;18.58;94.97;98923.79;1696881;83;21519;-78
2022/09/02 02:13:50;;;;;;;8.95;3.27;;;;;;;18.57;94.62;98922.11;1711695;82;21030;-79
2022/09/02 02:16:19;;;;;;;6.62;3.10;;;;;;;18.59;94.52;98921.07;1711787;81;21119;-78
2022/09/02 02:18:47;;;;;;;5.17;3.25;;;;;;;18.60;94.38;98922.78;1711484;84;21042;-78
2022/09/02 02:21:14;;;;;;;5.87;3.02;;;;;;;18.61;94.88;98919.19;1711437;84;21003;-79
2022/09/02 02:23:40;;;;;;;5.40;3.00;;;;;;;18.61;94.44;98917.88;1711484;83;21078;-78
2022/09/02 02:26:08;;;;;;;6.15;3.60;;;;;;;18.58;94.82;98917.20;1711333;82;20983;-79
2022/09/02 02:28:35;;;;;;;7.85;3.45;;;;;;;18.57;94.64;98922.11;1711402;82;21007;-78
2022/09/02 02:31:04;;;;;;;7.25;3.80;;;;;;;18.53;95.18;98918.81;1711497;83;21023;-80
2022/09/02 02:33:32;;;;;;;9.43;3.60;;;;;;;18.54;94.35;98915.70;1711420;82;21031;-78
2022/09/02 02:35:59;;;;;;;5.37;3.47;;;;;;;18.52;95.07;98912.31;1711032;82;20995;-79
2022/09/02 02:38:25;;;;;;;7.92;4.42;;;;;;;18.53;95.08;98922.77;1710903;82;21015;-78
2022/09/02 02:40:56;;;;;;;8.13;3.72;;;;;;;18.53;94.56;98913.55;1710457;83;20999;-79
2022/09/02 02:43:25;;;;;;;7.33;4.20;;;;;;;18.51;95.25;98914.59;1711492;84;21015;-78
2022/09/02 02:45:53;;;;;;;5.83;4.17;;;;;;;18.54;94.51;98907.80;1711471;82;21014;-78
2022/09/02 02:48:21;;;;;;;6.97;4.20;;;;;;;18.46;95.07;98917.48;1711333;83;21030;-79
2022/09/02 02:50:48;;;;;;;10.53;4.53;;;;;;;18.43;94.84;98918.52;1709187;82;21617;-78
2022/09/02 02:53:16;;;;;;;6.92;4.67;;;;;;;18.44;94.70;98919.36;1711528;82;21010;-78
2022/09/02 02:55:44;;;;;;;9.60;4.90;;;;;;;18.41;94.92;98914.30;1711290;83;21093;-79
2022/09/02 02:58:11;;;;;;;8.05;4.70;;;;;;;18.40;94.82;98914.77;1711363;83;21531;-78
2022/09/02 03:00:40;;;;;;;11.25;4.58;;;;;;;18.41;95.19;98909.03;1711322;83;21058;-78
2022/09/02 03:03:10;;;;;;;7.47;4.87;;;;;;;18.41;94.91;98905.92;1711257;84;21058;-79
2022/09/02 03:05:39;;;;;;;8.45;4.53;;;;;;;18.37;94.70;98905.73;1711525;84;21050;-82
2022/09/02 03:08:09;;;;;;;7.65;4.35;;;;;;;18.35;95.61;98907.61;1711399;82;21105;-78
2022/09/02 03:10:37;;;;;;;8.75;4.53;;;;;;;18.38;95.31;98910.52;1708688;84;21051;-82
2022/09/02 03:13:04;;;;;;;11.88;6.92;;;;;;;18.38;95.23;98914.02;1706369;84;21043;-79
2022/09/02 03:15:32;;;;;;;10.75;4.97;;;;;;;18.38;94.94;98911.39;1706966;83;21003;-79
2022/09/02 03:17:58;;;;;;;12.33;5.10;;;;;;;18.36;94.58;98912.39;1706604;83;21524;-80
2022/09/02 03:20:25;;;;;;;8.35;4.60;;;;;;;18.36;94.90;98906.66;1707228;83;20987;-78
2022/09/02 03:22:57;;;;;;;9.13;5.35;;;;;;;18.34;95.06;98901.95;1706867;82;21031;-79
2022/09/02 03:25:27;;;;;;;8.63;5.62;;;;;;;18.32;95.13;98906.47;1706800;83;21035;-79
2022/09/02 03:27:56;;;;;;;8.63;5.35;;;;;;;18.29;95.05;98910.61;1706222;84;21051;-78
2022/09/02 03:30:27;;;;;;;9.60;5.03;;;;;;;18.27;95.44;98910.70;1705307;83;21012;-78
2022/09/02 03:32:58;;;;;;;13.13;5.05;;;;;;;18.28;94.98;98908.91;1705055;83;21504;-77
2022/09/02 03:35:27;;;;;;;9.18;5.87;;;;;;;18.22;95.74;98912.77;1706323;84;20984;-78
2022/09/02 03:37:54;;;;;;;10.28;6.08;;;;;;;18.23;95.07;98911.81;1705210;83;20988;-79
2022/09/02 03:40:26;;;;;;;7.78;4.97;;;;;;;18.19;95.27;98906.36;1705191;83;21020;-79
2022/09/02 03:42:55;;;;;;;9.23;5.67;;;;;;;18.24;95.51;98906.08;1706612;83;21008;-78
2022/09/02 03:45:22;;;;;;;11.50;5.22;;;;;;;18.14;96.12;98904.94;1706726;83;21011;-78
2022/09/02 03:47:53;;;;;;;9.50;5.75;;;;;;;18.12;96.16;98901.55;1706712;84;21090;-78
2022/09/02 03:50:29;;;;;;;11.33;6.13;;;;;;;18.11;97.20;98908.61;1706914;83;21539;-79
2022/09/02 03:52:57;;;;;;;10.20;6.00;;;;;;;18.14;96.84;98914.14;1706632;83;21034;-80
2022/09/02 03:55:26;;;;;;;10.43;5.80;;;;;;;18.14;96.97;98914.14;1724093;83;21034;-78
2022/09/02 03:57:53;;;;;;;8.35;5.72;;;;;;;18.15;97.45;98918.48;1709116;82;21011;-79
2022/09/02 04:00:27;;;;;;;8.68;5.60;;;;;;;18.17;96.38;98917.92;1706692;83;21344;-78
2022/09/02 04:02:55;;;;;;;9.68;5.50;;;;;;;18.14;96.23;98921.56;1694385;83;21007;-79
2022/09/02 04:05:22;;;;;;;9.75;5.62;;;;;;;18.13;96.04;98924.30;1706565;84;21011;-79
2022/09/02 04:07:51;;;;;;;10.38;5.53;;;;;;;18.12;96.02;98918.65;1706075;84;20996;-80
2022/09/02 04:10:20;;;;;;;9.43;5.58;;;;;;;18.11;96.50;98917.81;1707576;84;21047;-79
2022/09/02 04:12:50;;;;;;;12.40;5.58;;;;;;;18.08;96.54;98916.66;1707619;84;21067;-84
2022/09/02 04:15:18;;;;;;;12.95;5.45;;;;;;;18.07;96.57;98925.03;1710338;83;21031;-80
2022/09/02 04:17:45;;;;;;;8.03;5.42;;;;;;;18.08;96.15;98928.05;1709663;83;20995;-80
2022/09/02 04:20:14;;;;;;;13.53;5.58;;;;;;;18.05;97.15;98928.22;1709755;84;20987;-80
2022/09/02 04:22:41;;;;;;;7.80;4.83;;;;;;;18.06;96.80;98933.87;1707638;84;21098;-79
2022/09/02 04:25:08;;;;;;;9.40;5.65;;;;;;;18.07;96.54;98938.19;1706601;83;20999;-79
2022/09/02 04:27:35;;;;;;;8.33;5.20;;;;;;;18.04;96.86;98939.66;1706370;84;21475;-79
2022/09/02 04:30:04;;;;;;;14.28;5.15;;;;;;;18.09;96.16;98932.36;1706273;84;21019;-79
2022/09/02 04:32:33;;;;;;;7.87;5.17;;;;;;;18.03;96.54;98940.62;1706940;82;21039;-79
2022/09/02 04:35:01;;;;;;;8.65;5.17;;;;;;;18.02;96.49;98940.22;1706754;83;21015;-79
2022/09/02 04:37:29;;;;;;;8.43;5.17;;;;;;;17.99;96.11;98943.52;1706997;83;21039;-78
2022/09/02 04:39:57;;;;;;;8.55;4.45;;;;;;;18.00;96.61;98947.36;1706689;84;21286;-80
2022/09/02 04:42:24;;;;;;;12.37;4.53;;;;;;;18.00;96.25;98943.41;1706643;83;21003;-79
2022/09/02 04:44:53;;;;;;;9.28;4.50;;;;;;;18.02;96.50;98949.43;1705904;83;21019;-80
2022/09/02 04:47:21;;;;;;;8.73;5.05;;;;;;;18.04;96.01;98954.61;1706839;83;20988;-78
2022/09/02 04:49:50;;;;;;;8.90;4.65;;;;;;;18.03;95.61;98947.67;1706789;83;21130;-78
2022/09/02 04:52:19;;;;;;;9.58;5.35;;;;;;;18.02;96.25;98952.53;1707205;83;21464;-79
2022/09/02 04:54:47;;;;;;;10.03;5.50;;;;;;;17.98;95.92;98949.23;1692925;83;21582;-78
2022/09/02 04:57:14;;;;;;;9.75;5.72;;;;;;;17.98;96.13;98953.65;1706204;84;21051;-79
2022/09/02 04:59:42;;;;;;;11.73;6.55;;;;;;;17.97;95.84;98956.75;1707123;84;21079;-79
2022/09/02 05:02:10;;;;;;;9.40;5.22;;;;;;;17.94;95.76;98959.55;1707418;84;21006;-79
2022/09/02 05:04:37;;;;;;;10.50;5.37;;;;;;;17.92;95.29;98956.16;1707257;83;20990;-79
2022/09/02 05:07:06;;;;;;;9.03;5.25;;;;;;;17.86;95.67;98959.14;1707831;82;21023;-79
2022/09/02 05:09:35;;;;;;;11.08;4.58;;;;;;;17.82;95.33;98957.59;1708485;82;21067;-80
2022/09/02 05:12:03;;;;;;;9.58;4.92;;;;;;;17.77;95.56;98961.81;1708200;83;21031;-82
2022/09/02 05:14:32;;;;;;;8.53;4.37;;;;;;;17.74;95.34;98962.45;1708586;83;21004;-80
2022/09/02 05:17:00;;;;;;;10.43;5.90;;;;;;;17.72;95.54;98960.38;1707380;83;21550;-79
2022/09/02 05:19:27;;;;;;;8.78;4.85;;;;;;;17.69;96.18;98965.34;1707173;83;21031;-78
2022/09/02 05:21:57;;;;;;;11.70;4.75;;;;;;;17.73;95.81;98969.97;1727469;83;21498;-81
2022/09/02 05:24:27;;;;;;;9.35;5.28;;;;;;;17.74;95.58;98975.59;1706848;83;21011;-78
2022/09/02 05:26:55;;;;;;;9.23;4.85;;;;;;;17.67;95.66;98965.42;1707131;84;20976;-79
2022/09/02 05:29:22;;;;;;;9.53;4.80;;;;;;;17.72;95.88;98972.20;1707121;83;21050;-79
2022/09/02 05:31:50;;;;;;;7.90;4.80;;;;;;;17.74;95.69;98974.27;1695146;84;21000;-79
2022/09/02 05:34:18;;;;;;;7.10;4.70;;;;;;;17.70;95.22;98969.17;1705744;84;21035;-79
2022/09/02 05:36:46;;;;;;;9.03;5.15;;;;;;;17.66;95.30;98975.55;1741683;81;21004;-79
2022/09/02 05:39:13;;;;;;;7.78;4.35;;;;;;;17.69;95.67;98971.44;1706930;83;21019;-79
2022/09/02 05:41:40;;;;;;;10.55;5.20;;;;;;;17.72;95.57;98974.83;1707054;83;21555;-82
2022/09/02 05:44:09;;;;;;;11.10;5.15;;;;;;;17.73;95.58;98974.75;1707145;83;21458;-79
2022/09/02 05:46:37;;;;;;;7.72;4.50;;;;;;;17.74;95.41;98976.91;1706499;83;21008;-79
2022/09/02 05:49:06;;;;;;;8.88;5.97;;;;;;;17.76;94.92;98980.30;1706592;83;21130;-79
2022/09/02 05:51:49;;;;;;;8.80;4.50;;;;;;;17.74;95.57;98982.16;1707201;82;21475;-81
2022/09/02 05:54:23;;;;;;;7.05;3.95;;;;;;;17.78;94.79;98985.84;1703243;83;21256;-80
2022/09/02 05:56:54;;;;;;;5.62;4.30;;;;;;;17.72;94.36;98977.46;1699446;83;21078;-79
2022/09/02 05:59:23;;;;;;;7.58;4.30;;;;;;;17.74;94.13;98979.06;1702997;83;21098;-79
2022/09/02 06:01:50;;;;;;;9.35;4.00;;;;;;;17.70;94.16;98975.75;1707068;83;21533;-80
2022/09/02 06:04:17;;;;;;;6.45;4.22;;;;;;;17.70;94.33;98975.75;1704921;83;21078;-80
2022/09/02 06:06:45;;;;;;;7.60;4.50;;;;;;;17.76;93.85;98977.19;1703028;83;21004;-81
2022/09/02 06:09:17;;;;;;;7.12;4.20;;;;;;;17.75;94.01;98978.62;1701549;82;21023;-79
2022/09/02 06:11:48;;;;;;;8.73;3.90;;;;;;;17.75;93.75;98983.40;1632383;86;21096;-76
2022/09/02 06:14:23;;;;;;;6.87;4.10;;;;;;;17.70;93.54;98979.70;1650110;85;21084;-78
2022/09/02 06:16:50;;;;;;;8.30;4.22;;;;;;;17.70;93.77;98984.11;1660104;85;21065;-79
2022/09/02 06:19:19;;;;;;;8.38;3.90;;;;;;;17.72;93.55;98982.72;1654678;85;21936;-78
2022/09/02 06:21:48;;;;;;;8.95;3.83;;;;;;;17.71;93.77;98983.19;1654638;85;21206;-78
2022/09/02 06:24:16;;;;;;;9.15;3.80;;;;;;;17.71;93.46;98984.51;1651534;85;21338;-79
2022/09/02 06:26:43;;;;;;;10.23;3.92;;;;;;;17.74;93.55;98989.58;1644518;85;21092;-78
2022/09/02 06:29:11;;;;;;;7.65;4.33;;;;;;;17.77;93.03;98991.20;1648576;85;21033;-77
2022/09/02 06:31:42;;;;;;;7.83;4.25;;;;;;;17.76;93.85;98996.07;1643133;85;21080;-78
2022/09/02 06:34:11;;;;;;;7.75;4.15;;;;;;;17.82;93.14;98999.19;1642664;85;21041;-80
2022/09/02 06:36:39;;;;;;;6.97;3.85;;;;;;;17.84;92.76;99001.77;1644421;85;21105;-79
2022/09/02 06:39:06;;;;;;;6.87;3.95;;;;;;;17.78;93.05;98999.46;1660306;85;21117;-78
2022/09/02 06:41:33;;;;;;;9.28;3.95;;;;;;;17.80;92.95;99002.85;1661286;85;21017;-77
2022/09/02 06:44:05;;;;;;;7.65;4.00;;;;;;;17.78;92.82;99011.30;1656928;85;21000;-78
2022/09/02 06:46:39;;;;;;;7.78;3.65;;;;;;;17.78;92.87;99009.98;1654433;85;21568;-78
2022/09/02 06:49:08;;;;;;;11.48;3.90;;;;;;;17.75;92.43;99015.42;1659878;85;21025;-79
2022/09/02 06:51:38;;;;;;;11.90;4.35;;;;;;;17.67;92.87;99023.26;1656537;85;21084;-78
2022/09/02 06:54:10;;;;;;;12.53;3.50;;;;;;;17.70;93.37;99016.97;1650913;85;21009;-79
2022/09/02 06:56:38;;;;;;;7.90;3.55;;;;;;;17.71;93.22;99020.00;1649575;85;21045;-78
2022/09/02 06:59:07;;;;;;;7.80;3.98;;;;;;;17.67;93.08;99027.67;1640679;85;21077;-78
2022/09/02 07:01:46;;;;;;;12.68;4.08;;;;;;;17.63;92.96;99024.84;1641937;85;21101;-79
2022/09/02 07:07:06;;;;;;;6.72;3.22;;;;;;;17.67;92.41;99032.46;1644211;85;21033;-79
2022/09/02 07:09:34;;;;;;;7.87;3.90;;;;;;;17.63;92.92;99028.30;1643125;85;21085;-79
2022/09/02 07:12:03;;;;;;;9.03;3.52;;;;;;;17.65;92.66;99026.91;1633670;85;21109;-78
2022/09/02 07:14:37;;;;;;;10.55;4.35;;;;;;;17.60;92.56;99033.72;1635105;87;21075;-79
2022/09/02 07:17:05;;;;;;;13.10;4.00;;;;;;;17.61;93.00;99035.43;1645996;85;21107;-78
2022/09/02 07:19:32;;;;;;;7.40;3.75;;;;;;;17.63;93.15;99030.94;1634534;85;21063;-79
2022/09/02 07:22:03;;;;;;;6.25;3.52;;;;;;;17.64;92.34;99041.81;1649603;85;21063;-79
2022/09/02 07:24:29;;;;;;;8.13;3.58;;;;;;;17.58;92.46;99040.84;1639819;85;21047;-77
2022/09/02 07:26:57;;;;;;;6.87;3.77;;;;;;;17.55;92.88;99037.53;1638675;85;21012;-79
2022/09/02 07:29:25;;;;;;;6.72;3.50;;;;;;;17.56;92.99;99038.77;1640318;85;21041;-80
2022/09/02 07:31:52;;;;;;;5.92;3.10;;;;;;;17.55;93.64;99041.03;1638379;85;21035;-79
2022/09/02 07:34:20;;;;;;;5.75;3.50;;;;;;;17.57;93.08;99043.11;1687029;83;21055;-79
2022/09/02 07:36:48;;;;;;;5.95;3.52;;;;;;;17.55;92.88;99043.66;1693271;83;22280;-79
2022/09/02 07:39:18;;;;;;;9.00;3.55;;;;;;;17.61;93.01;99042.00;1688771;83;21154;-78
2022/09/02 07:41:49;;;;;;;8.05;3.70;;;;;;;17.58;92.89;99039.53;1668750;84;21011;-78
2022/09/02 07:44:20;;;;;;;10.78;3.52;;;;;;;17.60;92.84;99043.39;1640783;85;21593;-79
2022/09/02 07:46:47;;;;;;;11.57;3.67;;;;;;;17.62;92.74;99050.25;1644890;85;21045;-78
2022/09/02 07:49:15;;;;;;;5.45;3.40;;;;;;;17.56;92.94;99046.65;1647004;85;21049;-78
2022/09/02 07:51:50;;;;;;;8.15;3.40;;;;;;;17.55;93.00;99046.73;1647348;85;21162;-76
2022/09/02 07:54:19;;;;;;;8.93;3.45;;;;;;;17.56;92.82;99045.34;1647637;85;21117;-78
2022/09/02 07:56:48;;;;;;;10.88;3.80;;;;;;;17.54;92.93;99050.30;1636930;85;21032;-79
2022/09/02 07:59:17;;;;;;;8.90;4.20;;;;;;;17.50;92.51;99039.10;1644833;85;21095;-77
2022/09/02 08:01:47;;;;;;;6.95;3.52;;;;;;;17.54;93.53;99043.73;1642864;85;21052;-79
2022/09/02 08:04:17;;;;;;;7.30;3.12;;;;;;;17.61;92.73;99045.95;1641556;85;21029;-79
2022/09/02 08:06:45;;;;;;;6.65;3.33;;;;;;;17.61;93.54;99051.67;1646150;85;21054;-75
2022/09/02 08:09:12;;;;;;;6.90;3.25;;;;;;;17.66;92.56;99050.47;1654327;85;21548;-77
2022/09/02 08:11:43;;;;;;;6.70;3.27;;;;;;;17.61;92.57;99050.36;1640208;85;21046;-78
2022/09/02 08:14:16;;;;;;;7.12;3.17;;;;;;;17.60;92.88;99052.12;1660785;85;21505;-78
2022/09/02 08:16:45;;;;;;;6.92;3.30;;;;;;;17.62;92.39;99054.20;1657591;85;21501;-79
2022/09/02 08:19:13;;;;;;;6.12;3.02;;;;;;;17.60;92.32;99062.64;1661192;85;21053;-77
2022/09/02 08:21:40;;;;;;;4.42;2.50;;;;;;;17.59;92.69;99064.06;1655740;85;21067;-79
2022/09/02 08:24:07;;;;;;;5.42;2.92;;;;;;;17.61;92.51;99065.66;1656027;85;21205;-78
2022/09/02 08:26:36;;;;;;;5.17;2.52;;;;;;;17.63;92.55;99061.17;1651839;85;21092;-78
2022/09/02 08:29:05;;;;;;;7.28;2.95;;;;;;;17.69;92.30;99058.67;1632070;86;21040;-78
2022/09/02 08:31:32;;;;;;;6.28;3.83;;;;;;;17.73;92.32;99063.30;1651979;85;21068;-76
2022/09/02 08:33:59;;;;;;;6.87;3.45;;;;;;;17.74;92.05;99063.67;1657391;85;21017;-79
2022/09/02 08:36:26;;;;;;;11.03;4.40;;;;;;;17.75;91.50;99068.85;1664318;85;21036;-79
2022/09/02 08:38:58;;;;;;;7.03;3.60;;;;;;;17.65;91.74;99052.73;1657156;84;21068;-79
2022/09/02 08:41:26;;;;;;;7.35;3.50;;;;;;;17.64;91.60;99057.59;1655147;85;21186;-79
2022/09/02 08:43:57;;;;;;;12.88;3.75;;;;;;;17.61;92.12;99061.72;1653784;85;21065;-79
2022/09/02 08:46:27;;;;;;;4.37;2.60;;;;;;;17.63;92.41;99070.37;1642915;85;21009;-78
2022/09/02 08:49:07;;;;;;;8.60;3.30;;;;;;;17.61;91.49;99053.83;1658173;85;21092;-79
2022/09/02 08:51:54;;;;;;;11.03;3.45;;;;;;;17.61;91.40;99051.67;1645876;85;21013;-78
2022/09/02 08:54:39;;;;;;;9.80;3.75;;;;;;;17.56;92.30;99060.27;1648826;85;21053;-80
2022/09/02 08:57:06;;;;;;;6.12;2.83;;;;;;;17.52;91.64;99056.11;1649829;85;21078;-79
2022/09/02 08:59:33;;;;;;;9.13;3.65;;;;;;;17.52;91.86;99056.95;1649473;85;21073;-80
2022/09/02 09:02:08;;;;;;;5.95;3.08;;;;;;;17.51;92.49;99063.16;1639459;85;21064;-79
2022/09/02 09:05:24;;;;;;;6.03;2.67;;;;;;;17.42;92.23;99064.95;1646392;85;21569;-79
2022/09/02 09:08:46;;;;;;;6.75;3.12;;;;;;;17.39;91.93;99062.47;1644645;85;21059;-78
2022/09/02 09:11:33;;;;;;;5.28;2.77;;;;;;;17.36;91.85;99073.16;1644625;85;21526;-80
2022/09/02 09:14:19;;;;;;;5.50;2.67;;;;;;;17.35;91.83;99075.39;1638799;85;21226;-81
2022/09/02 09:16:51;;;;;;;4.75;2.60;;;;;;;17.37;91.60;99074.41;1651839;85;21033;-82
2022/09/02 09:19:43;;;;;;;8.08;3.12;;;;;;;17.33;92.12;99072.00;1645812;85;21592;-80
2022/09/02 09:22:13;;;;;;;4.35;2.60;;;;;;;17.34;92.56;99073.24;1654722;85;21497;-80
2022/09/02 09:24:44;;;;;;;7.97;2.80;;;;;;;17.37;92.03;99072.22;1644960;85;21069;-81
2022/09/02 09:27:21;;;;;;;6.20;2.80;;;;;;;17.33;92.04;99072.88;1647471;85;21631;-80
2022/09/02 09:29:49;;;;;;;6.40;3.00;;;;;;;17.36;92.80;99072.70;1642697;85;21081;-80
2022/09/02 09:32:36;;;;;;;6.65;2.85;;;;;;;17.39;92.40;99075.61;1648085;85;20978;-78
2022/09/02 09:35:10;;;;;;;6.70;2.85;;;;;;;17.40;92.10;99066.81;1653761;85;21113;-79
2022/09/02 09:37:46;;;;;;;5.25;2.72;;;;;;;17.38;92.31;99068.20;1645986;85;21061;-78
2022/09/02 09:40:27;;;;;;;6.85;3.02;;;;;;;17.42;92.25;99063.64;1653245;85;21021;-78
2022/09/02 09:43:10;;;;;;;7.78;3.40;;;;;;;17.43;91.52;99056.16;1649749;85;21040;-79
2022/09/02 09:45:46;;;;;;;6.53;2.83;;;;;;;17.36;91.93;99066.59;1645458;85;21073;-80
2022/09/02 09:48:29;;;;;;;5.33;2.67;;;;;;;17.35;91.84;99071.45;1640701;85;21020;-77
2022/09/02 09:51:02;;;;;;;5.12;3.20;;;;;;;17.33;91.00;99070.25;1643635;85;21101;-78
2022/09/02 09:53:34;;;;;;;8.25;3.00;;;;;;;17.16;91.64;99067.19;1645767;85;21129;-79
2022/09/02 09:56:21;;;;;;;6.95;3.27;;;;;;;17.17;91.74;99060.14;1649987;85;22354;-77
2022/09/02 09:58:47;;;;;;;6.78;2.98;;;;;;;17.12;91.91;99062.18;1643748;85;21005;-78
2022/09/02 10:01:30;;;;;;;6.65;2.70;;;;;;;17.11;91.97;99058.71;1641307;85;21077;-79
2022/09/02 10:04:15;;;;;;;4.80;2.90;;;;;;;17.05;92.28;99059.88;1648720;85;21052;-78
2022/09/02 10:06:43;;;;;;;5.58;2.80;;;;;;;17.01;92.64;99055.72;1643280;85;21061;-79
2022/09/02 10:09:35;;;;;;;7.97;3.30;;;;;;;17.00;92.28;99059.25;1644008;85;21121;-79
2022/09/02 10:12:11;;;;;;;7.37;3.00;;;;;;;16.97;92.71;99055.93;1649280;85;21029;-80
2022/09/02 10:14:45;;;;;;;6.97;3.40;;;;;;;16.97;92.00;99051.55;1668497;84;21062;-78
2022/09/02 10:17:37;;;;;;;6.30;3.45;;;;;;;16.92;92.82;99056.66;1670254;84;21547;-79
2022/09/02 10:20:21;;;;;;;5.25;2.77;;;;;;;16.97;92.89;99050.69;1665766;84;21068;-79
2022/09/02 10:23:23;;;;;;;7.85;2.92;;;;;;;16.92;92.82;99054.03;1658111;85;21037;-78
2022/09/02 10:26:04;;;;;;;6.67;3.27;;;;;;;16.90;92.76;99052.78;1673323;84;21334;-78
2022/09/02 10:28:52;;;;;;;14.65;4.05;;;;;;;16.90;92.76;99056.73;1664902;84;20996;-79
2022/09/02 10:31:57;;;;;;;10.75;4.62;;;;;;;16.92;93.22;99054.87;1614044;87;21605;-81
2022/09/02 10:34:48;;;;;;;6.78;3.40;;;;;;;16.93;93.50;99052.64;1588132;88;21344;-79
2022/09/02 10:37:22;;;;;;;9.23;3.42;;;;;;;16.91;93.77;99053.19;1644523;85;21097;-79
2022/09/02 10:40:13;;;;;;;6.85;2.95;;;;;;;16.93;93.25;99054.39;1651537;85;21037;-79
2022/09/02 10:42:53;;;;;;;7.97;2.87;;;;;;;16.93;93.26;99050.45;1653659;85;21528;-79
2022/09/02 10:45:48;;;;;;;9.80;3.27;;;;;;;16.95;92.88;99057.35;1650231;85;21108;-79
2022/09/02 10:48:29;;;;;;;4.85;2.77;;;;;;;16.97;93.25;99054.63;1651246;85;21608;-79
2022/09/02 10:51:37;;;;;;;6.03;2.90;;;;;;;16.99;92.69;99056.70;1657466;85;21073;-79
2022/09/02 10:54:30;;;;;;;6.00;2.72;;;;;;;17.00;92.76;99054.48;1648339;85;21070;-80
2022/09/02 10:57:20;;;;;;;5.97;3.25;;;;;;;17.01;93.42;99054.84;1630324;86;21030;-79
2022/09/02 10:59:55;;;;;;;9.20;3.40;;;;;;;17.02;92.91;99065.28;1625848;87;21586;-79
2022/09/02 11:02:50;;;;;;;7.37;3.42;;;;;;;17.00;92.72;99060.56;1648914;85;21030;-79
2022/09/02 11:05:24;;;;;;;6.37;3.17;;;;;;;16.98;92.89;99069.47;1652192;85;21510;-79
2022/09/02 11:08:08;;;;;;;6.85;3.42;;;;;;;17.00;92.88;99061.04;1647545;85;21172;-80
2022/09/02 11:10:49;;;;;;;6.65;2.80;;;;;;;17.07;92.37;99063.27;1627747;85;21116;-78
2022/09/02 11:13:51;;;;;;;7.42;2.92;;;;;;;17.05;92.35;99059.00;1646438;85;21101;-78
2022/09/02 11:16:34;;;;;;;7.20;3.15;;;;;;;17.03;92.44;99068.30;1649035;85;21073;-80
2022/09/02 11:19:08;;;;;;;;;;;;;;;16.99;92.41;99062.83;1655124;85;21064;-79
2022/09/02 11:21:40;;;;;;;7.27;2.93;;;;;;;16.99;92.73;99069.83;1651981;85;20217;-79
2022/09/02 11:24:12;;;;;;;5.42;3.05;;;;;;;16.98;93.14;99061.58;1649891;85;21531;-79
2022/09/02 11:26:59;;;;;;;6.40;3.15;;;;;;;17.02;93.06;99070.53;1644368;85;21050;-79
2022/09/02 11:30:02;;;;;;;6.00;3.58;;;;;;;17.10;93.76;99062.25;1651156;85;21112;-79
2022/09/02 11:32:46;;;;;;;6.78;3.08;;;;;;;17.20;93.06;99058.68;1661483;85;21049;-79
2022/09/02 11:35:20;;;;;;;6.28;3.12;;;;;;;17.23;93.06;99055.43;1659939;85;21006;-79
2022/09/02 11:37:55;;;;;;;6.53;2.98;;;;;;;17.26;92.80;99059.67;1660165;85;21169;-78
2022/09/02 11:40:39;;;;;;;5.80;2.60;;;;;;;17.33;92.52;99059.73;1659988;85;21052;-79
2022/09/02 11:43:29;;;;;;;5.30;2.85;;;;;;;17.29;92.98;99055.58;1660034;85;21035;-79
2022/09/02 11:46:46;;;;;;;6.28;3.42;;;;;;;17.29;93.01;99048.53;1621165;85;21030;-79
2022/09/02 11:50:11;;;;;;;7.90;2.58;;;;;;;17.35;92.61;99043.86;1665227;85;22664;-80
2022/09/02 11:53:18;;;;;;;5.97;2.98;;;;;;;17.35;92.60;99048.68;1662941;85;21087;-78
2022/09/02 11:55:55;;;;;;;7.33;3.10;;;;;;;17.34;92.56;99043.50;1663852;85;21107;-80
2022/09/02 11:58:44;;;;;;;8.83;2.77;;;;;;;17.32;92.30;99036.16;1659840;85;21023;-82
2022/09/02 12:01:49;;;;;;;7.80;3.00;;;;;;;17.24;92.56;99032.16;1657627;85;21064;-79